sensor_id;sensor_type;location;lat;lon;timestamp;P1;durP1;ratioP1;P2;durP2;ratioP2
24567;SDS011;12731;52.182;8.716;2023-03-01T00:02:00;12.25;;;9.45;;
24567;SDS011;12731;52.182;8.716;2023-03-01T00:04:27;13.27;;;9.40;;
24567;SDS011;12731;52.182;8.716;2023-03-01T00:06:53;12.55;;;8.55;;
24567;SDS011;12731;52.182;8.716;2023-03-01T00:09:20;15.50;;;9.60;;
24567;SDS011;12731;52.182;8.716;2023-03-01T00:11:47;13.60;;;9.68;;
24567;SDS011;12731;52.182;8.716;2023-03-01T00:14:14;12.25;;;8.55;;
24567;SDS011;12731;52.182;8.716;2023-03-01T00:16:43;11.07;;;8.70;;
24567;SDS011;12731;52.182;8.716;2023-03-01T00:19:12;11.70;;;8.40;;
24567;SDS011;12731;52.182;8.716;2023-03-01T00:21:40;11.70;;;8.75;;
24567;SDS011;12731;52.182;8.716;2023-03-01T00:24:07;11.70;;;8.00;;
24567;SDS011;12731;52.182;8.716;2023-03-01T00:26:34;14.05;;;7.85;;
24567;SDS011;12731;52.182;8.716;2023-03-01T00:29:00;14.73;;;8.07;;
24567;SDS011;12731;52.182;8.716;2023-03-01T00:31:28;12.55;;;8.73;;
24567;SDS011;12731;52.182;8.716;2023-03-01T00:33:57;12.15;;;7.82;;
24567;SDS011;12731;52.182;8.716;2023-03-01T00:36:26;14.73;;;8.43;;
24567;SDS011;12731;52.182;8.716;2023-03-01T00:38:55;11.40;;;7.57;;
24567;SDS011;12731;52.182;8.716;2023-03-01T00:41:22;11.15;;;7.68;;
24567;SDS011;12731;52.182;8.716;2023-03-01T00:43:49;13.55;;;8.45;;
24567;SDS011;12731;52.182;8.716;2023-03-01T00:46:18;10.88;;;7.80;;
24567;SDS011;12731;52.182;8.716;2023-03-01T00:48:46;11.88;;;8.70;;
24567;SDS011;12731;52.182;8.716;2023-03-01T00:53:50;13.93;;;9.20;;
24567;SDS011;12731;52.182;8.716;2023-03-01T00:56:17;13.57;;;9.68;;
24567;SDS011;12731;52.182;8.716;2023-03-01T00:58:44;14.40;;;10.65;;
24567;SDS011;12731;52.182;8.716;2023-03-01T01:01:11;14.85;;;10.23;;
24567;SDS011;12731;52.182;8.716;2023-03-01T01:06:29;17.23;;;10.18;;
24567;SDS011;12731;52.182;8.716;2023-03-01T01:08:58;13.07;;;9.27;;
24567;SDS011;12731;52.182;8.716;2023-03-01T01:11:26;13.63;;;9.27;;
24567;SDS011;12731;52.182;8.716;2023-03-01T01:13:53;12.75;;;8.82;;
24567;SDS011;12731;52.182;8.716;2023-03-01T01:16:20;15.65;;;8.88;;
24567;SDS011;12731;52.182;8.716;2023-03-01T01:18:48;11.45;;;8.52;;
24567;SDS011;12731;52.182;8.716;2023-03-01T01:21:16;11.32;;;8.57;;
24567;SDS011;12731;52.182;8.716;2023-03-01T01:26:21;13.35;;;9.48;;
24567;SDS011;12731;52.182;8.716;2023-03-01T01:28:52;15.60;;;9.77;;
24567;SDS011;12731;52.182;8.716;2023-03-01T01:31:19;12.45;;;9.68;;
24567;SDS011;12731;52.182;8.716;2023-03-01T01:33:46;12.95;;;9.93;;
24567;SDS011;12731;52.182;8.716;2023-03-01T01:36:12;15.90;;;11.13;;
24567;SDS011;12731;52.182;8.716;2023-03-01T01:38:39;15.02;;;10.45;;
24567;SDS011;12731;52.182;8.716;2023-03-01T01:41:06;13.02;;;10.18;;
24567;SDS011;12731;52.182;8.716;2023-03-01T01:43:34;17.55;;;10.82;;
24567;SDS011;12731;52.182;8.716;2023-03-01T01:46:27;16.20;;;11.02;;
24567;SDS011;12731;52.182;8.716;2023-03-01T01:48:57;14.90;;;11.40;;
24567;SDS011;12731;52.182;8.716;2023-03-01T01:51:28;15.45;;;10.70;;
24567;SDS011;12731;52.182;8.716;2023-03-01T01:54:47;14.82;;;10.65;;
24567;SDS011;12731;52.182;8.716;2023-03-01T01:56:56;14.10;;;10.75;;
24567;SDS011;12731;52.182;8.716;2023-03-01T01:59:26;14.63;;;11.70;;
24567;SDS011;12731;52.182;8.716;2023-03-01T02:01:55;15.20;;;10.77;;
24567;SDS011;12731;52.182;8.716;2023-03-01T02:04:22;18.08;;;11.98;;
24567;SDS011;12731;52.182;8.716;2023-03-01T02:06:54;17.25;;;11.82;;
24567;SDS011;12731;52.182;8.716;2023-03-01T02:12:15;20.38;;;13.15;;
24567;SDS011;12731;52.182;8.716;2023-03-01T02:14:44;21.77;;;13.38;;
24567;SDS011;12731;52.182;8.716;2023-03-01T02:17:11;18.92;;;13.23;;
24567;SDS011;12731;52.182;8.716;2023-03-01T02:22:30;20.52;;;13.82;;
24567;SDS011;12731;52.182;8.716;2023-03-01T02:27:29;21.92;;;13.95;;
24567;SDS011;12731;52.182;8.716;2023-03-01T02:30:03;18.45;;;12.18;;
24567;SDS011;12731;52.182;8.716;2023-03-01T02:32:29;18.45;;;12.60;;
24567;SDS011;12731;52.182;8.716;2023-03-01T02:34:56;18.20;;;11.57;;
24567;SDS011;12731;52.182;8.716;2023-03-01T02:37:23;17.38;;;11.30;;
24567;SDS011;12731;52.182;8.716;2023-03-01T02:39:59;15.50;;;10.70;;
24567;SDS011;12731;52.182;8.716;2023-03-01T02:42:31;17.42;;;10.65;;
24567;SDS011;12731;52.182;8.716;2023-03-01T02:45:00;16.10;;;10.95;;
24567;SDS011;12731;52.182;8.716;2023-03-01T02:47:26;18.88;;;10.65;;
24567;SDS011;12731;52.182;8.716;2023-03-01T02:49:53;13.15;;;10.07;;
24567;SDS011;12731;52.182;8.716;2023-03-01T02:52:28;15.48;;;9.73;;
24567;SDS011;12731;52.182;8.716;2023-03-01T02:55:04;15.48;;;9.45;;
24567;SDS011;12731;52.182;8.716;2023-03-01T02:57:34;12.77;;;9.23;;
24567;SDS011;12731;52.182;8.716;2023-03-01T03:00:06;16.88;;;9.95;;
24567;SDS011;12731;52.182;8.716;2023-03-01T03:02:35;14.05;;;9.15;;
24567;SDS011;12731;52.182;8.716;2023-03-01T03:05:03;13.20;;;9.60;;
24567;SDS011;12731;52.182;8.716;2023-03-01T03:07:35;15.93;;;9.80;;
24567;SDS011;12731;52.182;8.716;2023-03-01T03:10:03;15.55;;;10.25;;
24567;SDS011;12731;52.182;8.716;2023-03-01T03:12:30;15.13;;;10.18;;
24567;SDS011;12731;52.182;8.716;2023-03-01T03:14:57;12.95;;;9.00;;
24567;SDS011;12731;52.182;8.716;2023-03-01T03:17:23;13.38;;;9.48;;
24567;SDS011;12731;52.182;8.716;2023-03-01T03:19:50;15.00;;;9.27;;
24567;SDS011;12731;52.182;8.716;2023-03-01T03:22:16;13.20;;;9.43;;
24567;SDS011;12731;52.182;8.716;2023-03-01T03:24:43;11.57;;;9.05;;
24567;SDS011;12731;52.182;8.716;2023-03-01T03:27:09;14.25;;;9.25;;
24567;SDS011;12731;52.182;8.716;2023-03-01T03:29:36;13.85;;;9.05;;
24567;SDS011;12731;52.182;8.716;2023-03-01T03:32:02;12.48;;;8.95;;
24567;SDS011;12731;52.182;8.716;2023-03-01T03:34:29;11.50;;;8.98;;
24567;SDS011;12731;52.182;8.716;2023-03-01T03:36:56;14.40;;;9.40;;
24567;SDS011;12731;52.182;8.716;2023-03-01T03:39:25;11.27;;;8.60;;
24567;SDS011;12731;52.182;8.716;2023-03-01T03:42:00;12.52;;;9.57;;
24567;SDS011;12731;52.182;8.716;2023-03-01T03:44:27;12.20;;;8.38;;
24567;SDS011;12731;52.182;8.716;2023-03-01T03:46:54;12.63;;;8.35;;
24567;SDS011;12731;52.182;8.716;2023-03-01T03:49:20;14.23;;;9.27;;
24567;SDS011;12731;52.182;8.716;2023-03-01T03:51:46;13.57;;;9.38;;
24567;SDS011;12731;52.182;8.716;2023-03-01T03:54:13;12.57;;;9.00;;
24567;SDS011;12731;52.182;8.716;2023-03-01T03:56:39;14.38;;;9.10;;
24567;SDS011;12731;52.182;8.716;2023-03-01T03:59:06;13.93;;;9.05;;
24567;SDS011;12731;52.182;8.716;2023-03-01T04:01:32;13.75;;;9.02;;
24567;SDS011;12731;52.182;8.716;2023-03-01T04:03:59;14.73;;;8.90;;
24567;SDS011;12731;52.182;8.716;2023-03-01T04:06:30;13.05;;;8.63;;
24567;SDS011;12731;52.182;8.716;2023-03-01T04:08:56;14.15;;;9.43;;
24567;SDS011;12731;52.182;8.716;2023-03-01T04:11:25;14.15;;;9.07;;
24567;SDS011;12731;52.182;8.716;2023-03-01T04:13:53;11.90;;;8.73;;
24567;SDS011;12731;52.182;8.716;2023-03-01T04:16:20;12.95;;;9.18;;
24567;SDS011;12731;52.182;8.716;2023-03-01T04:18:47;12.65;;;8.65;;
24567;SDS011;12731;52.182;8.716;2023-03-01T04:21:14;11.45;;;8.75;;
24567;SDS011;12731;52.182;8.716;2023-03-01T04:23:40;12.90;;;8.63;;
24567;SDS011;12731;52.182;8.716;2023-03-01T04:26:07;14.15;;;9.10;;
24567;SDS011;12731;52.182;8.716;2023-03-01T04:28:38;14.15;;;9.43;;
24567;SDS011;12731;52.182;8.716;2023-03-01T04:31:13;16.15;;;10.07;;
24567;SDS011;12731;52.182;8.716;2023-03-01T04:33:49;14.25;;;8.95;;
24567;SDS011;12731;52.182;8.716;2023-03-01T04:36:20;17.40;;;11.25;;
24567;SDS011;12731;52.182;8.716;2023-03-01T04:38:48;14.95;;;10.90;;
24567;SDS011;12731;52.182;8.716;2023-03-01T04:41:17;15.40;;;11.48;;
24567;SDS011;12731;52.182;8.716;2023-03-01T04:43:44;16.90;;;10.88;;
24567;SDS011;12731;52.182;8.716;2023-03-01T04:46:12;15.68;;;11.25;;
24567;SDS011;12731;52.182;8.716;2023-03-01T04:48:41;14.85;;;11.25;;
24567;SDS011;12731;52.182;8.716;2023-03-01T04:51:09;16.52;;;11.55;;
24567;SDS011;12731;52.182;8.716;2023-03-01T04:53:39;15.32;;;10.77;;
24567;SDS011;12731;52.182;8.716;2023-03-01T04:56:06;14.13;;;10.20;;
24567;SDS011;12731;52.182;8.716;2023-03-01T04:58:33;16.67;;;10.63;;
24567;SDS011;12731;52.182;8.716;2023-03-01T05:00:59;15.27;;;10.02;;
24567;SDS011;12731;52.182;8.716;2023-03-01T05:03:26;13.05;;;9.45;;
24567;SDS011;12731;52.182;8.716;2023-03-01T05:05:53;12.13;;;9.45;;
24567;SDS011;12731;52.182;8.716;2023-03-01T05:08:19;16.48;;;10.55;;
24567;SDS011;12731;52.182;8.716;2023-03-01T05:10:50;18.92;;;10.45;;
24567;SDS011;12731;52.182;8.716;2023-03-01T05:13:19;15.43;;;10.07;;
24567;SDS011;12731;52.182;8.716;2023-03-01T05:15:59;16.35;;;10.18;;
24567;SDS011;12731;52.182;8.716;2023-03-01T05:18:27;15.15;;;10.02;;
24567;SDS011;12731;52.182;8.716;2023-03-01T05:21:01;12.20;;;9.32;;
24567;SDS011;12731;52.182;8.716;2023-03-01T05:23:30;15.40;;;9.88;;
24567;SDS011;12731;52.182;8.716;2023-03-01T05:25:58;13.13;;;9.23;;
24567;SDS011;12731;52.182;8.716;2023-03-01T05:28:25;11.75;;;8.65;;
24567;SDS011;12731;52.182;8.716;2023-03-01T05:30:52;15.20;;;9.45;;
24567;SDS011;12731;52.182;8.716;2023-03-01T05:33:19;15.27;;;9.23;;
24567;SDS011;12731;52.182;8.716;2023-03-01T05:35:48;14.73;;;9.15;;
24567;SDS011;12731;52.182;8.716;2023-03-01T05:38:15;12.38;;;8.85;;
24567;SDS011;12731;52.182;8.716;2023-03-01T05:40:43;14.38;;;9.85;;
24567;SDS011;12731;52.182;8.716;2023-03-01T05:43:11;13.27;;;9.30;;
24567;SDS011;12731;52.182;8.716;2023-03-01T05:45:39;14.10;;;9.30;;
24567;SDS011;12731;52.182;8.716;2023-03-01T05:48:06;14.70;;;9.95;;
24567;SDS011;12731;52.182;8.716;2023-03-01T05:50:35;17.35;;;9.52;;
24567;SDS011;12731;52.182;8.716;2023-03-01T05:53:04;14.27;;;9.32;;
24567;SDS011;12731;52.182;8.716;2023-03-01T05:55:34;14.23;;;9.73;;
24567;SDS011;12731;52.182;8.716;2023-03-01T05:58:01;16.42;;;9.82;;
24567;SDS011;12731;52.182;8.716;2023-03-01T06:00:29;14.38;;;10.23;;
24567;SDS011;12731;52.182;8.716;2023-03-01T06:02:56;15.77;;;10.13;;
24567;SDS011;12731;52.182;8.716;2023-03-01T06:05:24;13.00;;;10.05;;
24567;SDS011;12731;52.182;8.716;2023-03-01T06:07:51;16.05;;;10.63;;
24567;SDS011;12731;52.182;8.716;2023-03-01T06:10:19;17.25;;;11.02;;
24567;SDS011;12731;52.182;8.716;2023-03-01T06:12:46;17.48;;;11.48;;
24567;SDS011;12731;52.182;8.716;2023-03-01T06:15:13;16.00;;;11.38;;
24567;SDS011;12731;52.182;8.716;2023-03-01T06:17:41;19.25;;;11.30;;
24567;SDS011;12731;52.182;8.716;2023-03-01T06:22:40;18.13;;;11.60;;
24567;SDS011;12731;52.182;8.716;2023-03-01T06:25:08;17.60;;;11.50;;
24567;SDS011;12731;52.182;8.716;2023-03-01T06:27:35;17.98;;;12.13;;
24567;SDS011;12731;52.182;8.716;2023-03-01T06:30:02;17.40;;;11.18;;
24567;SDS011;12731;52.182;8.716;2023-03-01T06:32:29;19.67;;;11.23;;
24567;SDS011;12731;52.182;8.716;2023-03-01T06:34:56;19.48;;;11.93;;
24567;SDS011;12731;52.182;8.716;2023-03-01T06:37:25;17.27;;;11.52;;
24567;SDS011;12731;52.182;8.716;2023-03-01T06:39:51;16.00;;;11.23;;
24567;SDS011;12731;52.182;8.716;2023-03-01T06:42:18;18.95;;;11.43;;
24567;SDS011;12731;52.182;8.716;2023-03-01T06:44:44;17.75;;;11.48;;
24567;SDS011;12731;52.182;8.716;2023-03-01T06:47:11;22.35;;;11.82;;
24567;SDS011;12731;52.182;8.716;2023-03-01T06:49:38;16.58;;;11.63;;
24567;SDS011;12731;52.182;8.716;2023-03-01T06:52:04;17.98;;;11.95;;
24567;SDS011;12731;52.182;8.716;2023-03-01T06:54:31;17.13;;;11.75;;
24567;SDS011;12731;52.182;8.716;2023-03-01T06:56:58;18.77;;;12.30;;
24567;SDS011;12731;52.182;8.716;2023-03-01T06:59:24;16.50;;;11.35;;
24567;SDS011;12731;52.182;8.716;2023-03-01T07:01:50;17.10;;;11.90;;
24567;SDS011;12731;52.182;8.716;2023-03-01T07:04:17;18.25;;;12.45;;
24567;SDS011;12731;52.182;8.716;2023-03-01T07:06:43;18.85;;;11.60;;
24567;SDS011;12731;52.182;8.716;2023-03-01T07:09:10;17.77;;;11.68;;
24567;SDS011;12731;52.182;8.716;2023-03-01T07:11:36;19.73;;;11.68;;
24567;SDS011;12731;52.182;8.716;2023-03-01T07:14:03;22.60;;;12.00;;
24567;SDS011;12731;52.182;8.716;2023-03-01T07:16:29;17.80;;;11.70;;
24567;SDS011;12731;52.182;8.716;2023-03-01T07:18:56;19.92;;;11.63;;
24567;SDS011;12731;52.182;8.716;2023-03-01T07:21:24;17.77;;;12.02;;
24567;SDS011;12731;52.182;8.716;2023-03-01T07:23:51;17.27;;;12.05;;
24567;SDS011;12731;52.182;8.716;2023-03-01T07:26:17;21.65;;;12.30;;
24567;SDS011;12731;52.182;8.716;2023-03-01T07:28:44;22.27;;;12.93;;
24567;SDS011;12731;52.182;8.716;2023-03-01T07:31:10;20.48;;;13.23;;
24567;SDS011;12731;52.182;8.716;2023-03-01T07:33:37;19.77;;;13.38;;
24567;SDS011;12731;52.182;8.716;2023-03-01T07:36:03;20.08;;;13.32;;
24567;SDS011;12731;52.182;8.716;2023-03-01T07:38:30;23.92;;;13.32;;
24567;SDS011;12731;52.182;8.716;2023-03-01T07:41:01;25.92;;;13.80;;
24567;SDS011;12731;52.182;8.716;2023-03-01T07:43:29;23.55;;;14.20;;
24567;SDS011;12731;52.182;8.716;2023-03-01T07:46:02;20.42;;;13.68;;
24567;SDS011;12731;52.182;8.716;2023-03-01T07:48:29;20.60;;;12.35;;
24567;SDS011;12731;52.182;8.716;2023-03-01T07:50:59;19.75;;;12.98;;
24567;SDS011;12731;52.182;8.716;2023-03-01T07:53:27;20.02;;;13.23;;
24567;SDS011;12731;52.182;8.716;2023-03-01T07:56:00;19.52;;;13.60;;
24567;SDS011;12731;52.182;8.716;2023-03-01T07:58:38;20.15;;;13.45;;
24567;SDS011;12731;52.182;8.716;2023-03-01T08:01:07;19.75;;;13.05;;
24567;SDS011;12731;52.182;8.716;2023-03-01T08:03:35;19.10;;;12.13;;
24567;SDS011;12731;52.182;8.716;2023-03-01T08:06:02;19.98;;;13.70;;
24567;SDS011;12731;52.182;8.716;2023-03-01T08:08:30;24.02;;;13.57;;
24567;SDS011;12731;52.182;8.716;2023-03-01T08:10:58;24.38;;;13.70;;
24567;SDS011;12731;52.182;8.716;2023-03-01T08:13:25;19.95;;;12.75;;
24567;SDS011;12731;52.182;8.716;2023-03-01T08:15:52;20.30;;;13.07;;
24567;SDS011;12731;52.182;8.716;2023-03-01T08:18:19;21.00;;;13.15;;
24567;SDS011;12731;52.182;8.716;2023-03-01T08:20:47;17.45;;;12.68;;
24567;SDS011;12731;52.182;8.716;2023-03-01T08:23:13;20.02;;;12.73;;
24567;SDS011;12731;52.182;8.716;2023-03-01T08:25:40;17.02;;;12.10;;
24567;SDS011;12731;52.182;8.716;2023-03-01T08:28:06;19.48;;;12.23;;
24567;SDS011;12731;52.182;8.716;2023-03-01T08:30:33;21.20;;;13.38;;
24567;SDS011;12731;52.182;8.716;2023-03-01T08:33:00;16.60;;;12.43;;
24567;SDS011;12731;52.182;8.716;2023-03-01T08:35:26;18.02;;;12.00;;
24567;SDS011;12731;52.182;8.716;2023-03-01T08:37:53;17.50;;;12.32;;
24567;SDS011;12731;52.182;8.716;2023-03-01T08:40:20;16.75;;;11.85;;
24567;SDS011;12731;52.182;8.716;2023-03-01T08:42:46;17.33;;;12.07;;
24567;SDS011;12731;52.182;8.716;2023-03-01T08:45:12;19.15;;;11.82;;
24567;SDS011;12731;52.182;8.716;2023-03-01T08:47:44;19.30;;;13.00;;
24567;SDS011;12731;52.182;8.716;2023-03-01T08:50:11;17.23;;;11.88;;
24567;SDS011;12731;52.182;8.716;2023-03-01T08:52:37;16.05;;;12.00;;
24567;SDS011;12731;52.182;8.716;2023-03-01T08:55:04;18.30;;;12.25;;
24567;SDS011;12731;52.182;8.716;2023-03-01T08:57:31;16.08;;;11.93;;
24567;SDS011;12731;52.182;8.716;2023-03-01T08:59:57;20.92;;;12.85;;
24567;SDS011;12731;52.182;8.716;2023-03-01T09:02:24;16.25;;;11.65;;
24567;SDS011;12731;52.182;8.716;2023-03-01T09:04:51;15.95;;;12.10;;
24567;SDS011;12731;52.182;8.716;2023-03-01T09:07:17;18.98;;;12.75;;
24567;SDS011;12731;52.182;8.716;2023-03-01T09:09:43;20.60;;;12.05;;
24567;SDS011;12731;52.182;8.716;2023-03-01T09:12:10;17.52;;;13.20;;
24567;SDS011;12731;52.182;8.716;2023-03-01T09:14:36;17.40;;;11.52;;
24567;SDS011;12731;52.182;8.716;2023-03-01T09:17:04;18.17;;;11.50;;
24567;SDS011;12731;52.182;8.716;2023-03-01T09:19:31;14.05;;;10.50;;
24567;SDS011;12731;52.182;8.716;2023-03-01T09:21:57;15.57;;;11.57;;
24567;SDS011;12731;52.182;8.716;2023-03-01T09:24:24;15.70;;;10.52;;
24567;SDS011;12731;52.182;8.716;2023-03-01T09:26:53;15.10;;;10.73;;
24567;SDS011;12731;52.182;8.716;2023-03-01T09:29:20;18.05;;;10.77;;
24567;SDS011;12731;52.182;8.716;2023-03-01T09:31:47;12.95;;;10.27;;
24567;SDS011;12731;52.182;8.716;2023-03-01T09:34:13;13.05;;;9.68;;
24567;SDS011;12731;52.182;8.716;2023-03-01T09:36:42;14.57;;;8.82;;
24567;SDS011;12731;52.182;8.716;2023-03-01T09:39:08;15.23;;;9.02;;
24567;SDS011;12731;52.182;8.716;2023-03-01T09:44:38;11.07;;;7.78;;
24567;SDS011;12731;52.182;8.716;2023-03-01T09:47:09;13.43;;;8.05;;
24567;SDS011;12731;52.182;8.716;2023-03-01T09:49:39;13.65;;;8.43;;
24567;SDS011;12731;52.182;8.716;2023-03-01T09:52:25;10.63;;;8.18;;
24567;SDS011;12731;52.182;8.716;2023-03-01T09:55:01;12.57;;;8.48;;
24567;SDS011;12731;52.182;8.716;2023-03-01T09:57:29;14.48;;;8.25;;
24567;SDS011;12731;52.182;8.716;2023-03-01T10:00:07;10.60;;;7.60;;
24567;SDS011;12731;52.182;8.716;2023-03-01T10:02:48;12.10;;;7.47;;
24567;SDS011;12731;52.182;8.716;2023-03-01T10:13:04;10.90;;;7.13;;
24567;SDS011;12731;52.182;8.716;2023-03-01T10:15:42;12.52;;;8.48;;
24567;SDS011;12731;52.182;8.716;2023-03-01T10:18:15;10.48;;;7.03;;
24567;SDS011;12731;52.182;8.716;2023-03-01T10:20:50;11.85;;;7.63;;
24567;SDS011;12731;52.182;8.716;2023-03-01T10:23:19;9.73;;;7.22;;
24567;SDS011;12731;52.182;8.716;2023-03-01T10:31:43;10.73;;;7.53;;
24567;SDS011;12731;52.182;8.716;2023-03-01T10:36:41;10.32;;;7.10;;
24567;SDS011;12731;52.182;8.716;2023-03-01T10:39:12;9.38;;;7.05;;
24567;SDS011;12731;52.182;8.716;2023-03-01T10:42:00;9.30;;;6.78;;
24567;SDS011;12731;52.182;8.716;2023-03-01T10:44:48;9.18;;;6.53;;
24567;SDS011;12731;52.182;8.716;2023-03-01T10:47:22;11.27;;;7.18;;
24567;SDS011;12731;52.182;8.716;2023-03-01T10:50:01;10.93;;;7.28;;
24567;SDS011;12731;52.182;8.716;2023-03-01T10:52:31;11.45;;;7.82;;
24567;SDS011;12731;52.182;8.716;2023-03-01T10:55:03;10.13;;;6.77;;
24567;SDS011;12731;52.182;8.716;2023-03-01T10:57:39;13.90;;;8.25;;
24567;SDS011;12731;52.182;8.716;2023-03-01T11:02:47;15.70;;;9.68;;
24567;SDS011;12731;52.182;8.716;2023-03-01T11:05:18;13.93;;;9.95;;
24567;SDS011;12731;52.182;8.716;2023-03-01T11:07:47;15.15;;;8.70;;
24567;SDS011;12731;52.182;8.716;2023-03-01T11:10:23;10.05;;;6.93;;
24567;SDS011;12731;52.182;8.716;2023-03-01T11:12:53;9.15;;;6.97;;
24567;SDS011;12731;52.182;8.716;2023-03-01T11:15:27;11.07;;;7.40;;
24567;SDS011;12731;52.182;8.716;2023-03-01T11:17:54;11.60;;;8.45;;
24567;SDS011;12731;52.182;8.716;2023-03-01T11:20:38;10.68;;;7.22;;
24567;SDS011;12731;52.182;8.716;2023-03-01T11:23:05;9.50;;;6.45;;
24567;SDS011;12731;52.182;8.716;2023-03-01T11:25:36;11.07;;;7.20;;
24567;SDS011;12731;52.182;8.716;2023-03-01T11:28:05;10.70;;;7.25;;
24567;SDS011;12731;52.182;8.716;2023-03-01T11:30:45;11.50;;;6.97;;
24567;SDS011;12731;52.182;8.716;2023-03-01T11:38:54;9.00;;;6.63;;
24567;SDS011;12731;52.182;8.716;2023-03-01T11:41:23;10.02;;;7.45;;
24567;SDS011;12731;52.182;8.716;2023-03-01T11:43:56;10.80;;;6.97;;
24567;SDS011;12731;52.182;8.716;2023-03-01T11:46:39;10.52;;;7.00;;
24567;SDS011;12731;52.182;8.716;2023-03-01T11:49:49;9.48;;;6.55;;
24567;SDS011;12731;52.182;8.716;2023-03-01T11:55:30;9.63;;;7.07;;
24567;SDS011;12731;52.182;8.716;2023-03-01T12:06:59;8.98;;;7.20;;
24567;SDS011;12731;52.182;8.716;2023-03-01T12:12:17;13.48;;;7.10;;
24567;SDS011;12731;52.182;8.716;2023-03-01T12:17:41;9.07;;;6.75;;
24567;SDS011;12731;52.182;8.716;2023-03-01T12:20:21;12.15;;;6.63;;
24567;SDS011;12731;52.182;8.716;2023-03-01T12:34:25;10.57;;;6.93;;
24567;SDS011;12731;52.182;8.716;2023-03-01T12:37:12;9.38;;;6.78;;
24567;SDS011;12731;52.182;8.716;2023-03-01T12:49:10;9.65;;;6.70;;
24567;SDS011;12731;52.182;8.716;2023-03-01T12:51:40;8.60;;;6.28;;
24567;SDS011;12731;52.182;8.716;2023-03-01T12:54:20;11.20;;;7.13;;
24567;SDS011;12731;52.182;8.716;2023-03-01T12:56:57;8.77;;;6.10;;
24567;SDS011;12731;52.182;8.716;2023-03-01T13:10:34;9.50;;;6.75;;
24567;SDS011;12731;52.182;8.716;2023-03-01T13:13:20;9.95;;;6.80;;
24567;SDS011;12731;52.182;8.716;2023-03-01T13:15:51;10.57;;;6.82;;
24567;SDS011;12731;52.182;8.716;2023-03-01T13:20:54;9.32;;;6.53;;
24567;SDS011;12731;52.182;8.716;2023-03-01T13:23:27;9.85;;;6.28;;
24567;SDS011;12731;52.182;8.716;2023-03-01T13:33:48;10.50;;;6.78;;
24567;SDS011;12731;52.182;8.716;2023-03-01T13:46:50;8.98;;;5.68;;
24567;SDS011;12731;52.182;8.716;2023-03-01T13:49:19;9.65;;;6.63;;
24567;SDS011;12731;52.182;8.716;2023-03-01T13:51:48;8.65;;;5.63;;
24567;SDS011;12731;52.182;8.716;2023-03-01T13:54:16;9.63;;;6.15;;
24567;SDS011;12731;52.182;8.716;2023-03-01T13:56:54;8.10;;;6.28;;
24567;SDS011;12731;52.182;8.716;2023-03-01T13:59:23;9.38;;;6.72;;
24567;SDS011;12731;52.182;8.716;2023-03-01T14:01:56;8.05;;;6.38;;
24567;SDS011;12731;52.182;8.716;2023-03-01T14:04:28;7.53;;;6.22;;
24567;SDS011;12731;52.182;8.716;2023-03-01T14:07:16;9.63;;;6.43;;
24567;SDS011;12731;52.182;8.716;2023-03-01T14:09:45;10.23;;;6.38;;
24567;SDS011;12731;52.182;8.716;2023-03-01T14:12:22;7.60;;;5.93;;
24567;SDS011;12731;52.182;8.716;2023-03-01T14:18:10;7.47;;;5.50;;
24567;SDS011;12731;52.182;8.716;2023-03-01T14:20:42;9.82;;;5.88;;
24567;SDS011;12731;52.182;8.716;2023-03-01T14:23:13;9.32;;;6.03;;
24567;SDS011;12731;52.182;8.716;2023-03-01T14:28:19;6.18;;;4.72;;
24567;SDS011;12731;52.182;8.716;2023-03-01T14:30:52;9.52;;;4.95;;
24567;SDS011;12731;52.182;8.716;2023-03-01T14:36:08;7.35;;;4.72;;
24567;SDS011;12731;52.182;8.716;2023-03-01T14:41:08;5.32;;;4.38;;
24567;SDS011;12731;52.182;8.716;2023-03-01T14:43:37;7.72;;;4.45;;
24567;SDS011;12731;52.182;8.716;2023-03-01T14:46:05;7.43;;;4.35;;
24567;SDS011;12731;52.182;8.716;2023-03-01T14:48:31;6.10;;;4.55;;
24567;SDS011;12731;52.182;8.716;2023-03-01T14:50:58;7.85;;;4.43;;
24567;SDS011;12731;52.182;8.716;2023-03-01T14:53:26;6.22;;;4.07;;
24567;SDS011;12731;52.182;8.716;2023-03-01T14:55:55;5.65;;;4.20;;
24567;SDS011;12731;52.182;8.716;2023-03-01T14:58:24;7.75;;;4.57;;
24567;SDS011;12731;52.182;8.716;2023-03-01T15:00:52;8.13;;;4.30;;
24567;SDS011;12731;52.182;8.716;2023-03-01T15:03:25;5.50;;;3.95;;
24567;SDS011;12731;52.182;8.716;2023-03-01T15:05:58;4.55;;;3.58;;
24567;SDS011;12731;52.182;8.716;2023-03-01T15:08:26;6.03;;;3.72;;
24567;SDS011;12731;52.182;8.716;2023-03-01T15:11:05;6.80;;;3.80;;
24567;SDS011;12731;52.182;8.716;2023-03-01T15:13:48;6.15;;;3.90;;
24567;SDS011;12731;52.182;8.716;2023-03-01T15:16:17;7.13;;;4.05;;
24567;SDS011;12731;52.182;8.716;2023-03-01T15:18:46;5.72;;;3.78;;
24567;SDS011;12731;52.182;8.716;2023-03-01T15:21:26;7.03;;;3.97;;
24567;SDS011;12731;52.182;8.716;2023-03-01T15:23:57;7.28;;;4.07;;
24567;SDS011;12731;52.182;8.716;2023-03-01T15:26:37;5.70;;;3.80;;
24567;SDS011;12731;52.182;8.716;2023-03-01T15:29:10;6.28;;;3.97;;
24567;SDS011;12731;52.182;8.716;2023-03-01T15:31:43;8.00;;;4.35;;
24567;SDS011;12731;52.182;8.716;2023-03-01T15:36:51;4.63;;;3.40;;
24567;SDS011;12731;52.182;8.716;2023-03-01T15:42:04;6.03;;;4.13;;
24567;SDS011;12731;52.182;8.716;2023-03-01T15:44:35;6.25;;;4.22;;
24567;SDS011;12731;52.182;8.716;2023-03-01T15:47:22;4.63;;;3.58;;
24567;SDS011;12731;52.182;8.716;2023-03-01T15:49:50;6.30;;;4.03;;
24567;SDS011;12731;52.182;8.716;2023-03-01T15:54:59;6.70;;;4.22;;
24567;SDS011;12731;52.182;8.716;2023-03-01T15:57:27;6.97;;;4.00;;
24567;SDS011;12731;52.182;8.716;2023-03-01T15:59:54;5.50;;;3.95;;
24567;SDS011;12731;52.182;8.716;2023-03-01T16:02:21;5.95;;;3.70;;
24567;SDS011;12731;52.182;8.716;2023-03-01T16:04:49;6.68;;;3.78;;
24567;SDS011;12731;52.182;8.716;2023-03-01T16:07:16;5.80;;;4.00;;
24567;SDS011;12731;52.182;8.716;2023-03-01T16:09:43;6.55;;;4.22;;
24567;SDS011;12731;52.182;8.716;2023-03-01T16:12:14;6.18;;;4.00;;
24567;SDS011;12731;52.182;8.716;2023-03-01T16:14:41;3.95;;;2.60;;
24567;SDS011;12731;52.182;8.716;2023-03-01T16:17:08;6.70;;;3.90;;
24567;SDS011;12731;52.182;8.716;2023-03-01T16:19:39;7.15;;;3.80;;
24567;SDS011;12731;52.182;8.716;2023-03-01T16:22:08;8.45;;;4.68;;
24567;SDS011;12731;52.182;8.716;2023-03-01T16:24:36;4.28;;;3.70;;
24567;SDS011;12731;52.182;8.716;2023-03-01T16:27:02;5.68;;;4.28;;
24567;SDS011;12731;52.182;8.716;2023-03-01T16:29:29;4.15;;;3.40;;
24567;SDS011;12731;52.182;8.716;2023-03-01T16:31:56;5.18;;;3.88;;
24567;SDS011;12731;52.182;8.716;2023-03-01T16:34:22;6.88;;;4.18;;
24567;SDS011;12731;52.182;8.716;2023-03-01T16:36:49;7.13;;;4.10;;
24567;SDS011;12731;52.182;8.716;2023-03-01T16:39:16;7.45;;;4.57;;
24567;SDS011;12731;52.182;8.716;2023-03-01T16:41:42;6.35;;;4.60;;
24567;SDS011;12731;52.182;8.716;2023-03-01T16:44:09;6.75;;;4.13;;
24567;SDS011;12731;52.182;8.716;2023-03-01T16:46:35;7.72;;;4.55;;
24567;SDS011;12731;52.182;8.716;2023-03-01T16:49:02;5.57;;;4.18;;
24567;SDS011;12731;52.182;8.716;2023-03-01T16:51:29;6.47;;;4.57;;
24567;SDS011;12731;52.182;8.716;2023-03-01T16:53:57;7.00;;;4.65;;
24567;SDS011;12731;52.182;8.716;2023-03-01T16:56:23;6.53;;;4.60;;
24567;SDS011;12731;52.182;8.716;2023-03-01T16:58:50;7.97;;;4.50;;
24567;SDS011;12731;52.182;8.716;2023-03-01T17:01:17;6.25;;;4.30;;
24567;SDS011;12731;52.182;8.716;2023-03-01T17:03:46;7.63;;;4.88;;